sensor_id;sensor_type;location;lat;lon;timestamp;temperature;humidity
9640;DHT22;51745;50.872;4.732;2023-01-29T00:02:04;-2.60;99.90
9640;DHT22;51745;50.872;4.732;2023-01-29T00:04:51;-1.70;99.90
9640;DHT22;51745;50.872;4.732;2023-01-29T00:07:44;-2.60;99.90
9640;DHT22;51745;50.872;4.732;2023-01-29T00:10:32;-2.70;99.90
9640;DHT22;51745;50.872;4.732;2023-01-29T00:13:20;-2.70;99.90
9640;DHT22;51745;50.872;4.732;2023-01-29T00:16:08;-2.80;99.90
9640;DHT22;51745;50.872;4.732;2023-01-29T00:18:59;-2.10;99.90
9640;DHT22;51745;50.872;4.732;2023-01-29T00:21:46;-2.80;99.90
9640;DHT22;51745;50.872;4.732;2023-01-29T00:24:34;-2.90;99.90
9640;DHT22;51745;50.872;4.732;2023-01-29T00:27:22;-2.70;99.90
9640;DHT22;51745;50.872;4.732;2023-01-29T00:30:10;-2.70;99.90
9640;DHT22;51745;50.872;4.732;2023-01-29T00:32:58;-1.70;99.90
9640;DHT22;51745;50.872;4.732;2023-01-29T00:35:47;-2.80;99.90
9640;DHT22;51745;50.872;4.732;2023-01-29T00:38:35;-2.90;99.90
9640;DHT22;51745;50.872;4.732;2023-01-29T00:41:25;-2.90;99.90
9640;DHT22;51745;50.872;4.732;2023-01-29T00:44:30;-2.90;99.90
9640;DHT22;51745;50.872;4.732;2023-01-29T00:47:35;-2.90;99.90
9640;DHT22;51745;50.872;4.732;2023-01-29T00:50:23;-2.90;99.90
9640;DHT22;51745;50.872;4.732;2023-01-29T00:53:12;-2.90;99.90
9640;DHT22;51745;50.872;4.732;2023-01-29T00:55:59;-3.00;99.90
9640;DHT22;51745;50.872;4.732;2023-01-29T00:58:47;-2.30;99.90
9640;DHT22;51745;50.872;4.732;2023-01-29T01:01:34;-2.50;99.90
9640;DHT22;51745;50.872;4.732;2023-01-29T01:04:39;-2.90;99.90
9640;DHT22;51745;50.872;4.732;2023-01-29T01:07:27;-3.00;99.90
9640;DHT22;51745;50.872;4.732;2023-01-29T01:10:17;-2.90;99.90
9640;DHT22;51745;50.872;4.732;2023-01-29T01:13:06;-2.90;99.90
9640;DHT22;51745;50.872;4.732;2023-01-29T01:15:54;-2.40;99.90
9640;DHT22;51745;50.872;4.732;2023-01-29T01:18:41;-3.00;99.90
9640;DHT22;51745;50.872;4.732;2023-01-29T01:21:29;-3.00;99.90
9640;DHT22;51745;50.872;4.732;2023-01-29T01:24:17;-3.00;99.90
9640;DHT22;51745;50.872;4.732;2023-01-29T01:27:07;-3.00;99.90
9640;DHT22;51745;50.872;4.732;2023-01-29T01:29:54;-3.00;99.90
9640;DHT22;51745;50.872;4.732;2023-01-29T01:32:41;-3.10;99.90
9640;DHT22;51745;50.872;4.732;2023-01-29T01:35:29;-2.80;99.90
9640;DHT22;51745;50.872;4.732;2023-01-29T01:38:17;-3.10;99.90
9640;DHT22;51745;50.872;4.732;2023-01-29T01:41:05;-2.70;99.90
9640;DHT22;51745;50.872;4.732;2023-01-29T01:43:54;-3.00;99.90
9640;DHT22;51745;50.872;4.732;2023-01-29T01:46:43;-3.00;99.90
9640;DHT22;51745;50.872;4.732;2023-01-29T01:49:33;-3.00;99.90
9640;DHT22;51745;50.872;4.732;2023-01-29T01:52:20;-3.10;99.90
9640;DHT22;51745;50.872;4.732;2023-01-29T01:55:08;-3.60;99.90
9640;DHT22;51745;50.872;4.732;2023-01-29T01:58:01;-3.00;99.90
9640;DHT22;51745;50.872;4.732;2023-01-29T02:00:52;-3.00;99.90
9640;DHT22;51745;50.872;4.732;2023-01-29T02:03:40;-1.50;99.90
9640;DHT22;51745;50.872;4.732;2023-01-29T02:06:47;-3.00;99.90
9640;DHT22;51745;50.872;4.732;2023-01-29T02:09:52;-3.50;99.90
9640;DHT22;51745;50.872;4.732;2023-01-29T02:12:43;-3.10;99.90
9640;DHT22;51745;50.872;4.732;2023-01-29T02:15:33;-3.00;99.90
9640;DHT22;51745;50.872;4.732;2023-01-29T02:18:22;-2.30;99.90
9640;DHT22;51745;50.872;4.732;2023-01-29T02:21:14;-3.10;99.90
9640;DHT22;51745;50.872;4.732;2023-01-29T02:24:26;-3.10;99.90
9640;DHT22;51745;50.872;4.732;2023-01-29T02:27:18;-3.00;99.90
9640;DHT22;51745;50.872;4.732;2023-01-29T02:30:10;-3.10;99.90
9640;DHT22;51745;50.872;4.732;2023-01-29T02:33:01;-3.60;99.90
9640;DHT22;51745;50.872;4.732;2023-01-29T02:35:55;-3.10;99.90
9640;DHT22;51745;50.872;4.732;2023-01-29T02:38:46;-3.10;99.90
9640;DHT22;51745;50.872;4.732;2023-01-29T02:41:37;-3.00;99.90
9640;DHT22;51745;50.872;4.732;2023-01-29T02:44:29;-3.00;99.90
9640;DHT22;51745;50.872;4.732;2023-01-29T02:47:22;-3.00;99.90
9640;DHT22;51745;50.872;4.732;2023-01-29T02:50:11;-3.00;99.90
9640;DHT22;51745;50.872;4.732;2023-01-29T02:53:03;-2.90;99.90
9640;DHT22;51745;50.872;4.732;2023-01-29T02:55:54;-3.00;99.90
9640;DHT22;51745;50.872;4.732;2023-01-29T02:58:44;-3.10;99.90
9640;DHT22;51745;50.872;4.732;2023-01-29T03:01:33;-3.20;99.90
9640;DHT22;51745;50.872;4.732;2023-01-29T03:04:23;-3.20;99.90
9640;DHT22;51745;50.872;4.732;2023-01-29T03:07:14;-3.20;99.90
9640;DHT22;51745;50.872;4.732;2023-01-29T03:10:23;-3.20;99.90
9640;DHT22;51745;50.872;4.732;2023-01-29T03:13:13;-3.10;99.90
9640;DHT22;51745;50.872;4.732;2023-01-29T03:16:03;-3.10;99.90
9640;DHT22;51745;50.872;4.732;2023-01-29T03:19:04;-3.10;99.90
9640;DHT22;51745;50.872;4.732;2023-01-29T03:21:54;-3.20;99.90
9640;DHT22;51745;50.872;4.732;2023-01-29T03:24:48;-4.50;99.90
9640;DHT22;51745;50.872;4.732;2023-01-29T03:27:56;-3.30;99.90
9640;DHT22;51745;50.872;4.732;2023-01-29T03:31:04;-3.30;99.90
9640;DHT22;51745;50.872;4.732;2023-01-29T03:34:14;-3.30;99.90
9640;DHT22;51745;50.872;4.732;2023-01-29T03:37:12;-3.40;99.90
9640;DHT22;51745;50.872;4.732;2023-01-29T03:40:04;-3.50;99.90
9640;DHT22;51745;50.872;4.732;2023-01-29T03:42:56;-3.70;99.90
9640;DHT22;51745;50.872;4.732;2023-01-29T03:45:48;-3.60;99.90
9640;DHT22;51745;50.872;4.732;2023-01-29T03:48:38;-3.70;99.90
9640;DHT22;51745;50.872;4.732;2023-01-29T03:51:27;-3.60;99.90
9640;DHT22;51745;50.872;4.732;2023-01-29T03:54:20;-3.60;99.90
9640;DHT22;51745;50.872;4.732;2023-01-29T03:57:12;-2.70;99.90
9640;DHT22;51745;50.872;4.732;2023-01-29T04:00:06;-3.00;99.90
9640;DHT22;51745;50.872;4.732;2023-01-29T04:03:16;-3.40;99.90
9640;DHT22;51745;50.872;4.732;2023-01-29T04:06:07;-3.40;99.90
9640;DHT22;51745;50.872;4.732;2023-01-29T04:09:21;-3.40;99.90
9640;DHT22;51745;50.872;4.732;2023-01-29T04:12:10;-3.40;99.90
9640;DHT22;51745;50.872;4.732;2023-01-29T04:15:00;-3.40;99.90
9640;DHT22;51745;50.872;4.732;2023-01-29T04:17:49;-3.40;99.90
9640;DHT22;51745;50.872;4.732;2023-01-29T04:20:48;-3.40;99.90
9640;DHT22;51745;50.872;4.732;2023-01-29T04:23:35;-3.40;99.90
9640;DHT22;51745;50.872;4.732;2023-01-29T04:26:39;-3.30;99.90
9640;DHT22;51745;50.872;4.732;2023-01-29T04:29:32;-3.30;99.90
9640;DHT22;51745;50.872;4.732;2023-01-29T04:32:25;-3.20;99.90
9640;DHT22;51745;50.872;4.732;2023-01-29T04:35:18;-3.20;99.90
9640;DHT22;51745;50.872;4.732;2023-01-29T04:38:11;-3.20;99.90
9640;DHT22;51745;50.872;4.732;2023-01-29T04:41:00;-3.20;99.90
9640;DHT22;51745;50.872;4.732;2023-01-29T04:43:54;-3.20;99.90
9640;DHT22;51745;50.872;4.732;2023-01-29T04:46:45;-3.10;99.90
9640;DHT22;51745;50.872;4.732;2023-01-29T04:49:34;-3.10;99.90
9640;DHT22;51745;50.872;4.732;2023-01-29T04:52:29;-3.10;99.90
9640;DHT22;51745;50.872;4.732;2023-01-29T04:55:20;-3.10;99.90
9640;DHT22;51745;50.872;4.732;2023-01-29T04:58:13;-3.00;99.90
9640;DHT22;51745;50.872;4.732;2023-01-29T05:01:05;-1.80;99.90
9640;DHT22;51745;50.872;4.732;2023-01-29T05:03:54;-2.90;99.90
9640;DHT22;51745;50.872;4.732;2023-01-29T05:06:44;-2.80;99.90
9640;DHT22;51745;50.872;4.732;2023-01-29T05:09:32;-2.70;99.90
9640;DHT22;51745;50.872;4.732;2023-01-29T05:12:21;-2.70;99.90
9640;DHT22;51745;50.872;4.732;2023-01-29T05:15:12;-2.60;99.90
9640;DHT22;51745;50.872;4.732;2023-01-29T05:18:02;-2.60;99.90
9640;DHT22;51745;50.872;4.732;2023-01-29T05:20:54;-2.50;99.90
9640;DHT22;51745;50.872;4.732;2023-01-29T05:23:43;-2.50;99.90
9640;DHT22;51745;50.872;4.732;2023-01-29T05:26:46;-2.40;99.90
9640;DHT22;51745;50.872;4.732;2023-01-29T05:29:51;-2.50;99.90
9640;DHT22;51745;50.872;4.732;2023-01-29T05:32:40;-2.30;99.90
9640;DHT22;51745;50.872;4.732;2023-01-29T05:35:29;-2.40;99.90
9640;DHT22;51745;50.872;4.732;2023-01-29T05:38:17;-2.30;99.90
9640;DHT22;51745;50.872;4.732;2023-01-29T05:41:05;-2.30;99.90
9640;DHT22;51745;50.872;4.732;2023-01-29T05:43:53;-2.40;99.90
9640;DHT22;51745;50.872;4.732;2023-01-29T05:46:41;-3.90;99.90
9640;DHT22;51745;50.872;4.732;2023-01-29T05:49:28;-2.40;99.90
9640;DHT22;51745;50.872;4.732;2023-01-29T05:52:18;-2.40;99.90
9640;DHT22;51745;50.872;4.732;2023-01-29T05:55:06;-2.40;99.90
9640;DHT22;51745;50.872;4.732;2023-01-29T05:57:54;-2.20;99.90
9640;DHT22;51745;50.872;4.732;2023-01-29T06:00:42;-2.40;99.90
9640;DHT22;51745;50.872;4.732;2023-01-29T06:03:29;-2.20;99.90
9640;DHT22;51745;50.872;4.732;2023-01-29T06:06:19;-2.20;99.90
9640;DHT22;51745;50.872;4.732;2023-01-29T06:09:10;-2.60;99.90
9640;DHT22;51745;50.872;4.732;2023-01-29T06:11:57;-2.80;99.90
9640;DHT22;51745;50.872;4.732;2023-01-29T06:14:45;-2.10;99.90
9640;DHT22;51745;50.872;4.732;2023-01-29T06:17:33;-2.00;99.90
9640;DHT22;51745;50.872;4.732;2023-01-29T06:20:21;-1.90;99.90
9640;DHT22;51745;50.872;4.732;2023-01-29T06:23:09;-1.90;99.90
9640;DHT22;51745;50.872;4.732;2023-01-29T06:25:59;-1.90;99.90
9640;DHT22;51745;50.872;4.732;2023-01-29T06:28:47;-1.80;99.90
9640;DHT22;51745;50.872;4.732;2023-01-29T06:31:35;-1.80;99.90
9640;DHT22;51745;50.872;4.732;2023-01-29T06:34:25;-1.60;99.90
9640;DHT22;51745;50.872;4.732;2023-01-29T06:37:12;-1.00;99.90
9640;DHT22;51745;50.872;4.732;2023-01-29T06:40:00;-1.70;99.90
9640;DHT22;51745;50.872;4.732;2023-01-29T06:42:49;-1.70;99.90
9640;DHT22;51745;50.872;4.732;2023-01-29T06:45:36;-1.60;99.90
9640;DHT22;51745;50.872;4.732;2023-01-29T06:48:24;-1.70;99.90
9640;DHT22;51745;50.872;4.732;2023-01-29T06:51:13;-1.60;99.90
9640;DHT22;51745;50.872;4.732;2023-01-29T06:54:00;-1.60;99.90
9640;DHT22;51745;50.872;4.732;2023-01-29T06:56:48;-1.50;99.90
9640;DHT22;51745;50.872;4.732;2023-01-29T06:59:36;-1.50;99.90
9640;DHT22;51745;50.872;4.732;2023-01-29T07:02:27;-1.30;99.90
9640;DHT22;51745;50.872;4.732;2023-01-29T07:05:15;-1.20;99.90
9640;DHT22;51745;50.872;4.732;2023-01-29T07:08:03;-1.20;99.90
9640;DHT22;51745;50.872;4.732;2023-01-29T07:10:50;-1.20;99.90
9640;DHT22;51745;50.872;4.732;2023-01-29T07:13:38;-1.20;99.90
9640;DHT22;51745;50.872;4.732;2023-01-29T07:16:26;-1.50;99.90
9640;DHT22;51745;50.872;4.732;2023-01-29T07:19:14;-1.70;99.90
9640;DHT22;51745;50.872;4.732;2023-01-29T07:22:02;-1.70;99.90
9640;DHT22;51745;50.872;4.732;2023-01-29T07:24:50;-1.50;99.90
9640;DHT22;51745;50.872;4.732;2023-01-29T07:27:38;-1.80;99.90
9640;DHT22;51745;50.872;4.732;2023-01-29T07:30:26;-1.00;99.90
9640;DHT22;51745;50.872;4.732;2023-01-29T07:33:15;-2.40;99.90
9640;DHT22;51745;50.872;4.732;2023-01-29T07:36:05;-1.60;99.90
9640;DHT22;51745;50.872;4.732;2023-01-29T07:38:53;-1.60;99.90
9640;DHT22;51745;50.872;4.732;2023-01-29T07:41:41;-1.70;99.90
9640;DHT22;51745;50.872;4.732;2023-01-29T07:44:33;-1.60;99.90
9640;DHT22;51745;50.872;4.732;2023-01-29T07:47:22;-1.50;99.90
9640;DHT22;51745;50.872;4.732;2023-01-29T07:50:11;-1.40;99.90
9640;DHT22;51745;50.872;4.732;2023-01-29T07:52:59;-1.40;99.90
9640;DHT22;51745;50.872;4.732;2023-01-29T07:55:47;-1.50;99.90
9640;DHT22;51745;50.872;4.732;2023-01-29T07:58:35;-1.30;99.90
9640;DHT22;51745;50.872;4.732;2023-01-29T08:01:23;-1.10;99.90
9640;DHT22;51745;50.872;4.732;2023-01-29T08:04:10;-1.20;99.90
9640;DHT22;51745;50.872;4.732;2023-01-29T08:06:59;-1.20;99.90
9640;DHT22;51745;50.872;4.732;2023-01-29T08:09:50;-1.20;99.90
9640;DHT22;51745;50.872;4.732;2023-01-29T08:12:37;-1.10;99.90
9640;DHT22;51745;50.872;4.732;2023-01-29T08:15:25;-2.10;99.90
9640;DHT22;51745;50.872;4.732;2023-01-29T08:18:13;-1.00;99.90
9640;DHT22;51745;50.872;4.732;2023-01-29T08:21:00;-1.00;99.90
9640;DHT22;51745;50.872;4.732;2023-01-29T08:23:50;-0.80;99.90
9640;DHT22;51745;50.872;4.732;2023-01-29T08:26:38;-0.90;99.90
9640;DHT22;51745;50.872;4.732;2023-01-29T08:29:25;-1.30;99.90
9640;DHT22;51745;50.872;4.732;2023-01-29T08:32:12;-0.40;99.90
9640;DHT22;51745;50.872;4.732;2023-01-29T08:35:00;-0.70;99.90
9640;DHT22;51745;50.872;4.732;2023-01-29T08:37:51;-0.70;99.90
9640;DHT22;51745;50.872;4.732;2023-01-29T08:40:40;-0.60;99.90
9640;DHT22;51745;50.872;4.732;2023-01-29T08:43:27;-0.60;99.90
9640;DHT22;51745;50.872;4.732;2023-01-29T08:46:16;-0.50;99.90
9640;DHT22;51745;50.872;4.732;2023-01-29T08:49:03;-2.90;99.90
9640;DHT22;51745;50.872;4.732;2023-01-29T08:51:50;-0.40;99.90
9640;DHT22;51745;50.872;4.732;2023-01-29T08:54:38;-0.30;99.90
9640;DHT22;51745;50.872;4.732;2023-01-29T08:57:28;-0.20;99.90
9640;DHT22;51745;50.872;4.732;2023-01-29T09:00:15;-0.10;99.90
9640;DHT22;51745;50.872;4.732;2023-01-29T09:03:03;-0.10;99.90
9640;DHT22;51745;50.872;4.732;2023-01-29T09:05:53;0.00;99.90
9640;DHT22;51745;50.872;4.732;2023-01-29T09:08:40;0.00;99.90
9640;DHT22;51745;50.872;4.732;2023-01-29T09:11:28;0.10;99.90
9640;DHT22;51745;50.872;4.732;2023-01-29T09:14:18;0.20;99.90
9640;DHT22;51745;50.872;4.732;2023-01-29T09:17:05;0.30;99.90
9640;DHT22;51745;50.872;4.732;2023-01-29T09:19:53;0.30;99.90
9640;DHT22;51745;50.872;4.732;2023-01-29T09:22:40;0.40;99.90
9640;DHT22;51745;50.872;4.732;2023-01-29T09:25:28;0.50;99.90
9640;DHT22;51745;50.872;4.732;2023-01-29T09:28:16;2.90;99.90
9640;DHT22;51745;50.872;4.732;2023-01-29T09:31:05;0.70;99.90
9640;DHT22;51745;50.872;4.732;2023-01-29T09:33:52;0.70;99.90
9640;DHT22;51745;50.872;4.732;2023-01-29T09:36:40;0.70;99.90
9640;DHT22;51745;50.872;4.732;2023-01-29T09:39:27;0.70;99.90
9640;DHT22;51745;50.872;4.732;2023-01-29T09:42:16;0.70;99.90
9640;DHT22;51745;50.872;4.732;2023-01-29T09:45:09;0.80;99.90
9640;DHT22;51745;50.872;4.732;2023-01-29T09:48:02;0.80;99.90
9640;DHT22;51745;50.872;4.732;2023-01-29T09:50:50;0.80;99.90
9640;DHT22;51745;50.872;4.732;2023-01-29T09:53:42;0.80;99.90
9640;DHT22;51745;50.872;4.732;2023-01-29T09:56:32;0.90;99.90
9640;DHT22;51745;50.872;4.732;2023-01-29T09:59:21;0.90;99.90
9640;DHT22;51745;50.872;4.732;2023-01-29T10:02:21;1.00;99.90
9640;DHT22;51745;50.872;4.732;2023-01-29T10:05:19;1.00;99.90
9640;DHT22;51745;50.872;4.732;2023-01-29T10:08:24;1.00;99.90
9640;DHT22;51745;50.872;4.732;2023-01-29T10:11:16;-0.20;99.90
9640;DHT22;51745;50.872;4.732;2023-01-29T10:14:10;1.00;99.90
9640;DHT22;51745;50.872;4.732;2023-01-29T10:17:03;1.30;99.90
9640;DHT22;51745;50.872;4.732;2023-01-29T10:19:55;1.20;99.90
9640;DHT22;51745;50.872;4.732;2023-01-29T10:25:49;1.20;99.90
9640;DHT22;51745;50.872;4.732;2023-01-29T10:28:40;1.40;99.90
9640;DHT22;51745;50.872;4.732;2023-01-29T10:31:31;1.40;99.90
9640;DHT22;51745;50.872;4.732;2023-01-29T10:34:26;1.40;99.90
9640;DHT22;51745;50.872;4.732;2023-01-29T10:37:15;1.40;99.90
9640;DHT22;51745;50.872;4.732;2023-01-29T10:40:10;1.40;99.90
9640;DHT22;51745;50.872;4.732;2023-01-29T10:43:05;4.20;99.90
9640;DHT22;51745;50.872;4.732;2023-01-29T10:45:56;1.60;99.90
9640;DHT22;51745;50.872;4.732;2023-01-29T10:48:49;1.60;99.90
9640;DHT22;51745;50.872;4.732;2023-01-29T10:51:49;1.60;99.90
9640;DHT22;51745;50.872;4.732;2023-01-29T10:54:45;1.70;99.90
9640;DHT22;51745;50.872;4.732;2023-01-29T10:57:39;1.60;99.90
9640;DHT22;51745;50.872;4.732;2023-01-29T11:00:32;1.70;99.90
9640;DHT22;51745;50.872;4.732;2023-01-29T11:03:23;1.80;99.90
9640;DHT22;51745;50.872;4.732;2023-01-29T11:06:14;1.80;99.90
9640;DHT22;51745;50.872;4.732;2023-01-29T11:09:05;1.80;99.90
9640;DHT22;51745;50.872;4.732;2023-01-29T11:11:56;1.80;99.90
9640;DHT22;51745;50.872;4.732;2023-01-29T11:14:46;1.90;99.90
9640;DHT22;51745;50.872;4.732;2023-01-29T11:17:38;2.00;99.90
9640;DHT22;51745;50.872;4.732;2023-01-29T11:20:27;2.00;99.90
9640;DHT22;51745;50.872;4.732;2023-01-29T11:23:22;1.90;99.90
9640;DHT22;51745;50.872;4.732;2023-01-29T11:26:12;2.10;99.90
9640;DHT22;51745;50.872;4.732;2023-01-29T11:29:00;2.30;99.90
9640;DHT22;51745;50.872;4.732;2023-01-29T11:31:49;2.20;99.90
9640;DHT22;51745;50.872;4.732;2023-01-29T11:37:42;2.40;99.90
9640;DHT22;51745;50.872;4.732;2023-01-29T11:40:35;2.30;99.90
9640;DHT22;51745;50.872;4.732;2023-01-29T11:43:32;2.40;99.90
9640;DHT22;51745;50.872;4.732;2023-01-29T11:46:20;2.90;99.90
9640;DHT22;51745;50.872;4.732;2023-01-29T11:49:11;2.40;99.90
9640;DHT22;51745;50.872;4.732;2023-01-29T11:52:07;2.50;99.90
9640;DHT22;51745;50.872;4.732;2023-01-29T11:54:58;2.50;99.90
9640;DHT22;51745;50.872;4.732;2023-01-29T11:57:47;2.30;99.90
9640;DHT22;51745;50.872;4.732;2023-01-29T12:00:36;2.70;99.90
9640;DHT22;51745;50.872;4.732;2023-01-29T12:03:28;0.50;99.90
9640;DHT22;51745;50.872;4.732;2023-01-29T12:06:17;2.80;99.90
9640;DHT22;51745;50.872;4.732;2023-01-29T12:09:08;2.80;99.90
9640;DHT22;51745;50.872;4.732;2023-01-29T12:11:59;2.80;99.90
9640;DHT22;51745;50.872;4.732;2023-01-29T12:18:13;3.20;99.90
9640;DHT22;51745;50.872;4.732;2023-01-29T12:21:04;3.20;99.90
9640;DHT22;51745;50.872;4.732;2023-01-29T12:23:53;3.10;99.90
9640;DHT22;51745;50.872;4.732;2023-01-29T12:26:45;3.10;99.90
9640;DHT22;51745;50.872;4.732;2023-01-29T12:29:39;3.30;99.90
9640;DHT22;51745;50.872;4.732;2023-01-29T12:32:31;3.20;99.90
9640;DHT22;51745;50.872;4.732;2023-01-29T12:35:23;3.30;99.90
9640;DHT22;51745;50.872;4.732;2023-01-29T12:38:13;3.20;99.90
9640;DHT22;51745;50.872;4.732;2023-01-29T12:41:04;3.30;99.90
9640;DHT22;51745;50.872;4.732;2023-01-29T12:43:55;3.30;99.90
9640;DHT22;51745;50.872;4.732;2023-01-29T12:46:47;3.40;99.90
9640;DHT22;51745;50.872;4.732;2023-01-29T12:49:38;3.40;99.90
9640;DHT22;51745;50.872;4.732;2023-01-29T12:52:32;3.90;99.90
9640;DHT22;51745;50.872;4.732;2023-01-29T12:55:20;3.60;99.90
9640;DHT22;51745;50.872;4.732;2023-01-29T12:58:09;3.50;99.90
9640;DHT22;51745;50.872;4.732;2023-01-29T13:01:00;3.50;99.90
9640;DHT22;51745;50.872;4.732;2023-01-29T13:03:51;3.50;99.90
9640;DHT22;51745;50.872;4.732;2023-01-29T13:06:42;3.30;99.90
9640;DHT22;51745;50.872;4.732;2023-01-29T13:09:31;3.60;99.90
9640;DHT22;51745;50.872;4.732;2023-01-29T13:12:20;5.90;99.90
9640;DHT22;51745;50.872;4.732;2023-01-29T13:15:13;5.30;99.90
9640;DHT22;51745;50.872;4.732;2023-01-29T13:18:19;3.70;99.90
9640;DHT22;51745;50.872;4.732;2023-01-29T13:21:11;3.70;99.90
9640;DHT22;51745;50.872;4.732;2023-01-29T13:24:01;5.10;99.90
9640;DHT22;51745;50.872;4.732;2023-01-29T13:26:49;3.70;99.90
9640;DHT22;51745;50.872;4.732;2023-01-29T13:29:37;5.40;99.90
9640;DHT22;51745;50.872;4.732;2023-01-29T13:32:25;3.90;99.90
9640;DHT22;51745;50.872;4.732;2023-01-29T13:35:13;3.70;99.90
9640;DHT22;51745;50.872;4.732;2023-01-29T13:38:04;4.10;99.90
9640;DHT22;51745;50.872;4.732;2023-01-29T13:40:52;3.90;99.90
9640;DHT22;51745;50.872;4.732;2023-01-29T13:43:43;3.90;99.90
9640;DHT22;51745;50.872;4.732;2023-01-29T13:46:38;3.80;99.90
9640;DHT22;51745;50.872;4.732;2023-01-29T13:49:31;3.90;99.90
9640;DHT22;51745;50.872;4.732;2023-01-29T13:52:33;4.60;99.90
9640;DHT22;51745;50.872;4.732;2023-01-29T13:55:25;4.00;99.90
9640;DHT22;51745;50.872;4.732;2023-01-29T13:58:17;4.00;99.90
9640;DHT22;51745;50.872;4.732;2023-01-29T14:01:11;4.20;99.90
9640;DHT22;51745;50.872;4.732;2023-01-29T14:03:58;3.80;99.90
9640;DHT22;51745;50.872;4.732;2023-01-29T14:07:04;5.30;99.90
9640;DHT22;51745;50.872;4.732;2023-01-29T14:10:13;3.90;99.90
9640;DHT22;51745;50.872;4.732;2023-01-29T14:16:31;3.70;99.90
9640;DHT22;51745;50.872;4.732;2023-01-29T14:19:19;3.60;99.90
9640;DHT22;51745;50.872;4.732;2023-01-29T14:22:14;3.70;99.90
9640;DHT22;51745;50.872;4.732;2023-01-29T14:25:05;3.70;99.90
9640;DHT22;51745;50.872;4.732;2023-01-29T14:27:53;3.60;99.90
9640;DHT22;51745;50.872;4.732;2023-01-29T14:30:44;3.60;99.90
9640;DHT22;51745;50.872;4.732;2023-01-29T14:33:35;3.60;99.90
9640;DHT22;51745;50.872;4.732;2023-01-29T14:36:31;3.60;99.90
9640;DHT22;51745;50.872;4.732;2023-01-29T14:39:31;3.60;99.90
9640;DHT22;51745;50.872;4.732;2023-01-29T14:42:20;3.50;99.90
9640;DHT22;51745;50.872;4.732;2023-01-29T14:45:20;3.50;99.90
9640;DHT22;51745;50.872;4.732;2023-01-29T14:51:13;3.50;99.90
9640;DHT22;51745;50.872;4.732;2023-01-29T14:54:03;3.50;99.90
9640;DHT22;51745;50.872;4.732;2023-01-29T14:56:56;3.50;99.90
9640;DHT22;51745;50.872;4.732;2023-01-29T14:59:47;3.50;99.90
9640;DHT22;51745;50.872;4.732;2023-01-29T15:02:36;3.40;99.90
9640;DHT22;51745;50.872;4.732;2023-01-29T15:05:25;3.40;99.90
9640;DHT22;51745;50.872;4.732;2023-01-29T15:08:17;3.40;99.90
9640;DHT22;51745;50.872;4.732;2023-01-29T15:11:11;3.30;99.90
9640;DHT22;51745;50.872;4.732;2023-01-29T15:14:23;5.30;99.90
9640;DHT22;51745;50.872;4.732;2023-01-29T15:17:16;3.40;99.90
9640;DHT22;51745;50.872;4.732;2023-01-29T15:20:23;3.40;99.90
9640;DHT22;51745;50.872;4.732;2023-01-29T15:23:26;3.30;99.90
9640;DHT22;51745;50.872;4.732;2023-01-29T15:26:16;3.30;99.90
9640;DHT22;51745;50.872;4.732;2023-01-29T15:29:05;3.30;99.90
9640;DHT22;51745;50.872;4.732;2023-01-29T15:31:52;3.30;99.90
9640;DHT22;51745;50.872;4.732;2023-01-29T15:34:49;3.40;99.90
9640;DHT22;51745;50.872;4.732;2023-01-29T15:37:38;3.20;99.90
9640;DHT22;51745;50.872;4.732;2023-01-29T15:40:28;3.30;99.90
9640;DHT22;51745;50.872;4.732;2023-01-29T15:43:20;3.30;99.90
9640;DHT22;51745;50.872;4.732;2023-01-29T15:46:09;2.80;99.90
9640;DHT22;51745;50.872;4.732;2023-01-29T15:48:59;3.10;99.90
9640;DHT22;51745;50.872;4.732;2023-01-29T15:51:48;2.10;99.90
9640;DHT22;51745;50.872;4.732;2023-01-29T15:54:42;3.10;99.90
9640;DHT22;51745;50.872;4.732;2023-01-29T15:57:33;3.20;99.90
9640;DHT22;51745;50.872;4.732;2023-01-29T16:00:23;5.50;99.90
9640;DHT22;51745;50.872;4.732;2023-01-29T16:03:12;3.10;99.90
9640;DHT22;51745;50.872;4.732;2023-01-29T16:06:00;3.10;99.90
9640;DHT22;51745;50.872;4.732;2023-01-29T16:08:49;3.00;99.90
9640;DHT22;51745;50.872;4.732;2023-01-29T16:11:46;2.90;99.90
9640;DHT22;51745;50.872;4.732;2023-01-29T16:14:39;3.10;99.90
9640;DHT22;51745;50.872;4.732;2023-01-29T16:17:29;2.20;99.90
9640;DHT22;51745;50.872;4.732;2023-01-29T16:20:28;3.60;99.90
9640;DHT22;51745;50.872;4.732;2023-01-29T16:23:18;3.20;99.90
9640;DHT22;51745;50.872;4.732;2023-01-29T16:26:07;3.30;99.90
9640;DHT22;51745;50.872;4.732;2023-01-29T16:28:55;3.40;99.90
9640;DHT22;51745;50.872;4.732;2023-01-29T16:31:45;3.30;99.90
9640;DHT22;51745;50.872;4.732;2023-01-29T16:34:34;3.30;99.90
9640;DHT22;51745;50.872;4.732;2023-01-29T16:37:23;3.40;99.90
9640;DHT22;51745;50.872;4.732;2023-01-29T16:40:13;3.40;99.90
9640;DHT22;51745;50.872;4.732;2023-01-29T16:46:22;3.60;99.90
9640;DHT22;51745;50.872;4.732;2023-01-29T16:52:35;3.10;99.90
9640;DHT22;51745;50.872;4.732;2023-01-29T16:55:24;3.40;99.90
9640;DHT22;51745;50.872;4.732;2023-01-29T16:58:14;3.10;99.90
9640;DHT22;51745;50.872;4.732;2023-01-29T17:01:03;3.10;99.90
9640;DHT22;51745;50.872;4.732;2023-01-29T17:04:02;3.10;99.90
9640;DHT22;51745;50.872;4.732;2023-01-29T17:06:53;3.00;99.90
9640;DHT22;51745;50.872;4.732;2023-01-29T17:09:43;3.00;99.90
9640;DHT22;51745;50.872;4.732;2023-01-29T17:12:31;3.00;99.90
9640;DHT22;51745;50.872;4.732;2023-01-29T17:15:31;2.90;99.90
9640;DHT22;51745;50.872;4.732;2023-01-29T17:18:20;2.00;99.90
9640;DHT22;51745;50.872;4.732;2023-01-29T17:21:08;2.90;99.90
9640;DHT22;51745;50.872;4.732;2023-01-29T17:23:56;4.20;99.90
9640;DHT22;51745;50.872;4.732;2023-01-29T17:26:45;3.20;99.90
9640;DHT22;51745;50.872;4.732;2023-01-29T17:29:32;2.90;99.90
9640;DHT22;51745;50.872;4.732;2023-01-29T17:32:19;2.90;99.90
9640;DHT22;51745;50.872;4.732;2023-01-29T17:35:12;3.00;99.90
9640;DHT22;51745;50.872;4.732;2023-01-29T17:38:00;2.80;99.90
9640;DHT22;51745;50.872;4.732;2023-01-29T17:40:53;2.80;99.90
9640;DHT22;51745;50.872;4.732;2023-01-29T17:43:44;2.90;99.90
9640;DHT22;51745;50.872;4.732;2023-01-29T17:46:32;2.80;99.90
9640;DHT22;51745;50.872;4.732;2023-01-29T17:49:23;2.90;99.90
9640;DHT22;51745;50.872;4.732;2023-01-29T17:52:12;2.90;99.90
9640;DHT22;51745;50.872;4.732;2023-01-29T17:55:00;2.90;99.90
9640;DHT22;51745;50.872;4.732;2023-01-29T17:57:48;2.90;99.90
9640;DHT22;51745;50.872;4.732;2023-01-29T18:00:37;2.90;99.90
9640;DHT22;51745;50.872;4.732;2023-01-29T18:03:28;5.20;99.90
9640;DHT22;51745;50.872;4.732;2023-01-29T18:06:17;3.00;99.90
9640;DHT22;51745;50.872;4.732;2023-01-29T18:09:06;2.80;99.90
9640;DHT22;51745;50.872;4.732;2023-01-29T18:11:55;2.80;99.90
9640;DHT22;51745;50.872;4.732;2023-01-29T18:14:45;3.20;99.90
9640;DHT22;51745;50.872;4.732;2023-01-29T18:17:36;3.90;99.90
9640;DHT22;51745;50.872;4.732;2023-01-29T18:20:25;2.80;99.90
9640;DHT22;51745;50.872;4.732;2023-01-29T18:23:13;2.90;99.90
9640;DHT22;51745;50.872;4.732;2023-01-29T18:26:01;3.70;99.90
9640;DHT22;51745;50.872;4.732;2023-01-29T18:28:49;2.90;99.90
9640;DHT22;51745;50.872;4.732;2023-01-29T18:31:37;3.00;99.90
9640;DHT22;51745;50.872;4.732;2023-01-29T18:34:26;3.00;99.90
9640;DHT22;51745;50.872;4.732;2023-01-29T18:37:14;2.90;99.90
9640;DHT22;51745;50.872;4.732;2023-01-29T18:40:03;2.90;99.90
9640;DHT22;51745;50.872;4.732;2023-01-29T18:42:51;2.90;99.90
9640;DHT22;51745;50.872;4.732;2023-01-29T18:45:39;2.80;99.90
9640;DHT22;51745;50.872;4.732;2023-01-29T18:48:27;2.80;99.90
9640;DHT22;51745;50.872;4.732;2023-01-29T18:51:17;2.80;99.90